Time;durP1;ratioP1;P1;durP2;ratioP2;P2;SDS_P1;SDS_P2;PMS_P1;PMS_P2;Temp;Humidity;BMP_temperature;BMP_pressure;BME280_temperature;BME280_humidity;BME280_pressure;Samples;Min_cycle;Max_cycle;Signal;HPM_P1;HPM_P2
2022/03/06 00:00:58;;;;;;;26.95;15.82;;;;;;;;;;5032502;28;20042;-68
2022/03/06 00:03:24;;;;;;;29.13;17.33;;;;;;;;;;5032934;28;20048;-68
2022/03/06 00:05:49;;;;;;;29.05;16.65;;;0.20;99.90;;;;;;5032705;28;20033;-68
2022/03/06 00:08:15;;;;;;;26.77;16.73;;;0.30;99.90;;;;;;5032541;28;20037;-68
2022/03/06 00:10:41;;;;;;;29.13;17.10;;;0.50;99.90;;;;;;5032491;28;20068;-68
2022/03/06 00:13:08;;;;;;;26.15;16.65;;;0.40;99.90;;;;;;5032421;28;20038;-68
2022/03/06 00:15:33;;;;;;;28.05;17.65;;;0.90;99.90;;;;;;5031151;28;20041;-68
2022/03/06 00:18:00;;;;;;;28.25;18.05;;;;;;;;;;5032231;28;20048;-68
2022/03/06 00:20:26;;;;;;;27.73;17.52;;;;;;;;;;5029957;28;20069;-68
2022/03/06 00:22:52;;;;;;;27.88;18.50;;;0.40;99.90;;;;;;5031160;28;20061;-70
2022/03/06 00:25:18;;;;;;;27.17;17.75;;;;;;;;;;5030912;28;20042;-68
2022/03/06 00:27:44;;;;;;;28.15;17.35;;;;;;;;;;5030768;28;20048;-68
2022/03/06 00:30:11;;;;;;;29.52;17.52;;;0.10;99.90;;;;;;5031062;28;20045;-68
2022/03/06 00:32:37;;;;;;;29.58;18.27;;;0.20;99.90;;;;;;5014348;28;20481;-68
2022/03/06 00:35:03;;;;;;;27.85;18.83;;;;;;;;;;5032097;28;20512;-68
2022/03/06 00:37:29;;;;;;;29.33;18.48;;;;;;;;;;5031898;28;20048;-68
2022/03/06 00:39:55;;;;;;;29.85;18.88;;;0.20;99.90;;;;;;5031962;28;20037;-68
2022/03/06 00:42:21;;;;;;;28.25;17.55;;;;;;;;;;5031668;28;20045;-68
2022/03/06 00:44:47;;;;;;;26.48;17.80;;;0.30;99.90;;;;;;5030759;28;20041;-68
2022/03/06 00:47:14;;;;;;;28.85;19.02;;;;;;;;;;5014190;28;20049;-68
2022/03/06 00:49:39;;;;;;;31.98;18.65;;;0.20;99.90;;;;;;5031736;28;20045;-68
2022/03/06 00:52:05;;;;;;;29.58;19.25;;;0.10;99.90;;;;;;5031703;28;20472;-69
2022/03/06 00:54:31;;;;;;;31.10;18.70;;;;;;;;;;5031841;28;20045;-69
2022/03/06 00:56:57;;;;;;;33.38;19.55;;;;;;;;;;5030497;28;20416;-68
2022/03/06 00:59:24;;;;;;;36.35;20.55;;;;;;;;;;5031562;28;20044;-68
2022/03/06 01:01:50;;;;;;;30.23;20.20;;;;;;;;;;5030561;28;20037;-68
2022/03/06 01:04:16;;;;;;;29.77;19.95;;;;;;;;;;5031786;28;20133;-68
2022/03/06 01:06:42;;;;;;;33.10;21.08;;;-0.50;99.90;;;;;;5030528;28;20060;-68
2022/03/06 01:09:07;;;;;;;30.80;20.92;;;0.00;99.90;;;;;;5031434;28;20405;-69
2022/03/06 01:11:37;;;;;;;33.85;20.67;;;-0.10;99.90;;;;;;5031546;28;20048;-68
2022/03/06 01:14:03;;;;;;;34.45;21.17;;;-0.30;99.90;;;;;;5031953;28;20041;-69
2022/03/06 01:16:29;;;;;;;33.58;21.38;;;-0.50;99.90;;;;;;5030112;28;20045;-68
2022/03/06 01:18:57;;;;;;;33.63;21.60;;;-0.10;99.90;;;;;;5031344;28;20037;-68
2022/03/06 01:21:23;;;;;;;35.20;20.90;;;;;;;;;;5031032;28;20057;-68
2022/03/06 01:23:49;;;;;;;32.42;20.90;;;;;;;;;;5030270;28;20037;-68
2022/03/06 01:26:17;;;;;;;32.55;20.98;;;-0.20;99.90;;;;;;5030094;28;20045;-68
2022/03/06 01:28:43;;;;;;;36.67;22.60;;;;;;;;;;5031182;28;20485;-68
2022/03/06 01:31:09;;;;;;;34.50;22.42;;;0.80;99.90;;;;;;5032332;28;20366;-68
2022/03/06 01:33:35;;;;;;;35.97;22.33;;;;;;;;;;5034065;28;20044;-69
2022/03/06 01:36:01;;;;;;;33.33;20.88;;;;;;;;;;5034074;28;20492;-68
2022/03/06 01:38:27;;;;;;;31.38;20.88;;;-0.20;99.90;;;;;;5033855;28;20382;-68
2022/03/06 01:40:52;;;;;;;31.85;21.05;;;-0.40;99.90;;;;;;5034277;28;20048;-68
2022/03/06 01:43:19;;;;;;;34.15;21.42;;;;;;;;;;5035235;28;20120;-68
2022/03/06 01:45:45;;;;;;;39.45;21.77;;;-0.60;99.90;;;;;;5034149;28;20045;-68
2022/03/06 01:48:11;;;;;;;30.27;21.48;;;;;;;;;;5035127;28;20111;-68
2022/03/06 01:50:38;;;;;;;35.58;22.02;;;-0.60;99.90;;;;;;5035030;28;20047;-69
2022/03/06 01:53:08;;;;;;;37.92;21.58;;;-0.40;99.90;;;;;;5034950;28;20052;-68
2022/03/06 01:55:34;;;;;;;31.45;21.02;;;;;;;;;;5033889;28;20042;-68
2022/03/06 01:58:03;;;;;;;32.92;22.38;;;-0.50;99.90;;;;;;5034947;28;20132;-68
2022/03/06 02:00:33;;;;;;;32.33;21.23;;;-0.50;99.90;;;;;;5049286;22;20507;-61
2022/03/06 02:02:59;;;;;;;35.13;22.55;;;-0.50;99.90;;;;;;4966790;28;20042;-60
2022/03/06 02:05:25;;;;;;;34.50;20.85;;;-0.20;99.90;;;;;;4999790;28;20026;-60
2022/03/06 02:07:51;;;;;;;32.97;21.83;;;;;;;;;;5015702;28;20136;-60
2022/03/06 02:10:17;;;;;;;36.60;21.42;;;-0.50;99.90;;;;;;5004581;28;20489;-60
2022/03/06 02:12:44;;;;;;;31.65;21.10;;;0.00;99.90;;;;;;4997701;28;20043;-61
2022/03/06 02:15:11;;;;;;;35.63;21.50;;;-0.20;99.90;;;;;;4996125;28;20485;-60
2022/03/06 02:17:38;;;;;;;33.88;21.40;;;-0.50;99.90;;;;;;4999541;28;20038;-60
2022/03/06 02:20:16;;;;;;;34.75;21.10;;;-0.80;99.90;;;;;;5015459;28;20038;-61
2022/03/06 02:22:45;;;;;;;36.83;21.42;;;-0.70;99.90;;;;;;5016900;28;20397;-61
2022/03/06 02:25:14;;;;;;;31.80;20.58;;;-0.30;99.90;;;;;;4998924;28;20528;-60
2022/03/06 02:27:40;;;;;;;35.60;20.88;;;-0.70;99.90;;;;;;4999077;28;20061;-61
2022/03/06 02:30:11;;;;;;;32.78;21.38;;;-0.70;99.90;;;;;;5016820;28;20046;-60
2022/03/06 02:32:41;;;;;;;34.60;21.23;;;-0.40;99.90;;;;;;5016493;28;20069;-62
2022/03/06 02:35:08;;;;;;;32.13;20.25;;;-0.50;99.90;;;;;;5016557;28;20046;-60
2022/03/06 02:37:34;;;;;;;33.15;20.27;;;-0.70;99.90;;;;;;4998782;28;20096;-60
2022/03/06 02:40:01;;;;;;;31.67;21.42;;;-0.60;99.90;;;;;;4999281;28;20045;-60
2022/03/06 02:42:33;;;;;;;34.60;20.85;;;-1.30;99.90;;;;;;5015739;28;20496;-60
2022/03/06 02:45:04;;;;;;;33.45;21.52;;;-1.10;99.90;;;;;;5016328;28;20084;-60
2022/03/06 02:47:29;;;;;;;31.70;20.65;;;-0.80;99.90;;;;;;5016551;28;20042;-60
2022/03/06 02:49:55;;;;;;;30.83;21.05;;;-0.70;99.90;;;;;;5016430;28;20144;-61
2022/03/06 02:52:21;;;;;;;35.75;20.15;;;;;;;;;;5016153;28;20553;-60
2022/03/06 02:54:47;;;;;;;36.42;21.48;;;-0.70;99.90;;;;;;4998595;28;20057;-60
2022/03/06 02:57:13;;;;;;;32.67;20.85;;;-0.80;99.90;;;;;;5015830;28;20460;-60
2022/03/06 02:59:40;;;;;;;32.30;20.27;;;-1.40;99.90;;;;;;4998330;28;20088;-61
2022/03/06 03:02:06;;;;;;;33.88;20.70;;;-0.80;99.90;;;;;;5015863;28;20137;-60
2022/03/06 03:04:33;;;;;;;32.42;20.63;;;-0.70;99.90;;;;;;4998631;28;20531;-60
2022/03/06 03:06:59;;;;;;;32.83;21.08;;;-0.10;99.90;;;;;;5015987;28;20500;-60
2022/03/06 03:09:25;;;;;;;33.85;20.83;;;-0.70;99.90;;;;;;4998297;28;20509;-61
2022/03/06 03:11:51;;;;;;;33.65;20.63;;;-0.80;99.90;;;;;;5015728;28;20489;-60
2022/03/06 03:14:31;;;;;;;33.63;20.67;;;-1.20;99.90;;;;;;5015709;28;20042;-61
2022/03/06 03:16:57;;;;;;;33.50;21.30;;;-0.90;99.90;;;;;;5015893;28;20104;-61
2022/03/06 03:19:23;;;;;;;31.80;20.80;;;;;;;;;;5015917;28;20038;-61
2022/03/06 03:21:49;;;;;;;33.00;20.70;;;-0.50;99.90;;;;;;5015738;28;20096;-61
2022/03/06 03:24:15;;;;;;;31.42;19.75;;;-0.50;99.90;;;;;;5015618;28;20042;-61
2022/03/06 03:26:40;;;;;;;39.22;21.42;;;-0.50;99.90;;;;;;4997991;28;20046;-61
2022/03/06 03:29:06;;;;;;;37.42;21.00;;;;;;;;;;5015730;28;20443;-61
2022/03/06 03:31:32;;;;;;;35.78;21.20;;;-0.50;99.90;;;;;;5015315;28;20645;-61
2022/03/06 03:33:58;;;;;;;30.83;20.38;;;;;;;;;;5015522;28;20136;-61
2022/03/06 03:36:24;;;;;;;32.88;20.10;;;;;;;;;;4997727;28;20100;-61
2022/03/06 03:38:50;;;;;;;32.58;21.13;;;0.30;99.90;;;;;;5015608;28;20057;-61
2022/03/06 03:41:16;;;;;;;30.40;19.13;;;-0.50;99.90;;;;;;5015135;28;20037;-61
2022/03/06 03:43:41;;;;;;;28.45;18.08;;;0.80;99.90;;;;;;5013909;28;20037;-61
2022/03/06 03:46:07;;;;;;;32.80;18.77;;;-0.40;99.90;;;;;;5015024;28;20042;-61
2022/03/06 03:48:33;;;;;;;30.65;19.08;;;-0.30;99.90;;;;;;5013837;28;20100;-61
2022/03/06 03:51:00;;;;;;;29.95;18.90;;;-0.20;99.90;;;;;;5015063;28;20125;-61
2022/03/06 03:53:25;;;;;;;26.42;17.58;;;0.10;99.90;;;;;;4997598;28;20121;-61
2022/03/06 03:55:52;;;;;;;31.40;18.20;;;;;;;;;;5015104;28;20088;-61
2022/03/06 03:58:19;;;;;;;27.92;18.15;;;0.10;99.90;;;;;;4997406;28;20084;-61
2022/03/06 04:00:45;;;;;;;31.02;17.02;;;;;;;;;;5010246;28;20437;-61
2022/03/06 04:03:13;;;;;;;32.15;17.50;;;0.00;99.90;;;;;;4995249;28;20511;-61
2022/03/06 04:05:39;;;;;;;28.55;17.70;;;;;;;;;;4994335;28;20061;-62
2022/03/06 04:08:04;;;;;;;24.55;16.95;;;0.70;99.90;;;;;;4995179;28;20046;-61
2022/03/06 04:10:31;;;;;;;26.98;17.23;;;;;;;;;;4995074;28;20035;-60
2022/03/06 04:12:56;;;;;;;25.80;16.70;;;-0.10;99.90;;;;;;4995354;28;20053;-61
2022/03/06 04:15:22;;;;;;;28.92;16.63;;;-0.40;99.90;;;;;;4995042;28;20046;-61
2022/03/06 04:17:47;;;;;;;23.23;16.15;;;-0.10;99.90;;;;;;4994955;28;20050;-61
2022/03/06 04:20:13;;;;;;;26.52;15.98;;;0.00;99.90;;;;;;4993985;28;20125;-61
2022/03/06 04:22:39;;;;;;;25.27;16.30;;;0.00;99.90;;;;;;4994936;28;20370;-61
2022/03/06 04:25:05;;;;;;;24.25;15.85;;;-0.10;99.90;;;;;;4994860;28;20039;-61
2022/03/06 04:27:30;;;;;;;25.73;16.38;;;-0.30;99.90;;;;;;4994813;28;20523;-61
2022/03/06 04:29:57;;;;;;;25.75;16.15;;;;;;;;;;4994782;28;20576;-61
2022/03/06 04:32:23;;;;;;;28.08;17.02;;;-0.30;99.90;;;;;;4994804;28;20057;-61
2022/03/06 04:34:49;;;;;;;23.08;15.18;;;0.00;99.90;;;;;;4994777;28;20166;-61
2022/03/06 04:37:15;;;;;;;26.83;15.93;;;-0.30;99.90;;;;;;4993557;28;20045;-61
2022/03/06 04:39:41;;;;;;;30.27;15.75;;;;;;;;;;4977364;28;20050;-61
2022/03/06 04:42:07;;;;;;;24.88;15.68;;;0.70;99.90;;;;;;4994847;28;20391;-61
2022/03/06 04:44:33;;;;;;;25.77;16.02;;;-0.10;99.90;;;;;;4994521;28;20493;-61
2022/03/06 04:46:59;;;;;;;22.67;14.50;;;1.00;99.90;;;;;;4993314;28;20125;-61
2022/03/06 04:49:28;;;;;;;22.20;15.23;;;-0.30;99.90;;;;;;4995025;28;20046;-61
2022/03/06 04:51:54;;;;;;;21.85;14.85;;;-0.10;99.90;;;;;;4994457;28;20061;-61
2022/03/06 04:54:20;;;;;;;21.88;14.98;;;-0.30;99.90;;;;;;4994304;28;20042;-61
2022/03/06 04:56:47;;;;;;;22.95;15.65;;;-0.30;99.90;;;;;;4994228;28;20049;-61
2022/03/06 04:59:12;;;;;;;25.58;15.10;;;-0.50;99.90;;;;;;4993370;28;20048;-61
2022/03/06 05:01:38;;;;;;;24.27;15.50;;;-0.30;99.90;;;;;;5008713;28;20436;-61
2022/03/06 05:04:06;;;;;;;27.98;15.07;;;-0.30;99.90;;;;;;5012645;28;20052;-61
2022/03/06 05:06:31;;;;;;;25.17;15.55;;;-0.50;99.90;;;;;;5013651;28;20069;-61
2022/03/06 05:08:57;;;;;;;24.00;14.85;;;;;;;;;;5013807;28;20092;-61
2022/03/06 05:11:23;;;;;;;24.40;15.43;;;-0.60;99.90;;;;;;4996459;28;20045;-61
2022/03/06 05:13:50;;;;;;;23.75;15.73;;;;;;;;;;5013671;28;20030;-61
2022/03/06 05:16:16;;;;;;;23.30;15.35;;;0.10;99.90;;;;;;5013718;28;20044;-61
2022/03/06 05:18:42;;;;;;;23.23;15.95;;;;;;;;;;5013590;28;20034;-61
2022/03/06 05:21:08;;;;;;;23.42;15.70;;;-0.60;99.90;;;;;;5013589;28;20034;-61
2022/03/06 05:23:33;;;;;;;24.85;15.50;;;-0.60;99.90;;;;;;5013533;28;20401;-61
2022/03/06 05:25:59;;;;;;;24.42;15.18;;;-0.20;99.90;;;;;;5013772;28;20029;-61
2022/03/06 05:28:27;;;;;;;22.77;15.25;;;-0.50;99.90;;;;;;4996007;28;20052;-61
2022/03/06 05:30:53;;;;;;;24.48;15.43;;;;;;;;;;5013766;28;20366;-61
2022/03/06 05:33:19;;;;;;;23.00;15.50;;;-0.50;99.90;;;;;;4996253;28;20437;-61
2022/03/06 05:35:46;;;;;;;23.52;14.48;;;-0.60;99.90;;;;;;5013728;28;20054;-61
2022/03/06 05:38:12;;;;;;;27.17;15.10;;;;;;;;;;4995722;28;20046;-61
2022/03/06 05:40:38;;;;;;;23.42;14.63;;;-0.50;99.90;;;;;;5013640;28;20044;-61
2022/03/06 05:43:04;;;;;;;22.65;14.68;;;-0.50;99.90;;;;;;5013338;28;20113;-61
2022/03/06 05:45:30;;;;;;;21.25;14.05;;;;;;;;;;4995863;28;20037;-61
2022/03/06 05:47:56;;;;;;;22.02;14.50;;;;;;;;;;5013360;28;20077;-61
2022/03/06 05:50:22;;;;;;;27.17;14.38;;;-0.70;99.90;;;;;;4995705;28;20130;-61
2022/03/06 05:52:48;;;;;;;19.67;13.48;;;-0.50;99.90;;;;;;4996436;28;20132;-61
2022/03/06 05:55:14;;;;;;;22.52;14.20;;;-1.10;99.90;;;;;;5013203;28;20038;-61
2022/03/06 05:57:41;;;;;;;21.52;12.73;;;-0.50;99.90;;;;;;5013101;28;20508;-61
2022/03/06 06:00:08;;;;;;;21.02;12.80;;;-0.50;99.90;;;;;;5013232;28;20116;-61
2022/03/06 06:02:37;;;;;;;19.60;12.73;;;;;;;;;;5013340;28;20046;-61
2022/03/06 06:05:08;;;;;;;19.33;12.90;;;-0.60;99.90;;;;;;5013156;28;20052;-61
2022/03/06 06:07:35;;;;;;;21.05;12.57;;;-0.60;99.90;;;;;;5012019;28;20045;-61
2022/03/06 06:10:01;;;;;;;20.45;12.63;;;;;;;;;;5013273;28;20092;-61
2022/03/06 06:12:27;;;;;;;18.05;12.00;;;-0.60;99.90;;;;;;5013162;28;20385;-60
2022/03/06 06:14:54;;;;;;;23.30;12.20;;;-0.50;99.90;;;;;;4995562;28;20049;-61
2022/03/06 06:17:20;;;;;;;19.15;11.70;;;-1.20;99.90;;;;;;4995352;28;20042;-61
2022/03/06 06:19:47;;;;;;;17.52;11.05;;;-0.50;99.90;;;;;;5016241;28;20113;-61
2022/03/06 06:22:13;;;;;;;15.85;10.68;;;-0.30;99.90;;;;;;5016723;28;20041;-61
2022/03/06 06:24:39;;;;;;;18.50;10.90;;;-0.30;99.90;;;;;;5016850;28;20064;-61
2022/03/06 06:27:05;;;;;;;19.55;11.27;;;-1.30;99.90;;;;;;4999069;28;20272;-61
2022/03/06 06:29:31;;;;;;;17.10;10.75;;;-0.50;99.90;;;;;;4998946;28;20049;-61
2022/03/06 06:31:57;;;;;;;18.80;10.93;;;;;;;;;;5016878;28;20034;-61
2022/03/06 06:34:23;;;;;;;16.42;10.38;;;-0.20;99.90;;;;;;5016639;28;20063;-61
2022/03/06 06:36:49;;;;;;;14.88;10.02;;;0.20;99.90;;;;;;4998892;28;20488;-61
2022/03/06 06:39:15;;;;;;;19.02;10.13;;;-0.10;99.90;;;;;;5016576;28;20038;-61
2022/03/06 06:41:42;;;;;;;14.40;9.50;;;0.10;99.90;;;;;;5016528;28;20042;-60
2022/03/06 06:44:09;;;;;;;16.67;9.05;;;-0.60;99.90;;;;;;5016175;28;20038;-60
2022/03/06 06:46:35;;;;;;;15.02;8.20;;;0.10;99.90;;;;;;5016191;28;20053;-61
2022/03/06 06:49:03;;;;;;;11.85;8.00;;;0.10;99.90;;;;;;4998554;28;20041;-59
2022/03/06 06:51:30;;;;;;;11.77;7.82;;;0.20;99.90;;;;;;5016054;28;20064;-60
2022/03/06 06:53:56;;;;;;;12.90;7.90;;;;;;;;;;5016254;28;20060;-61
2022/03/06 06:56:22;;;;;;;11.25;7.50;;;;;;;;;;5016092;28;20077;-61
2022/03/06 06:58:47;;;;;;;15.48;7.93;;;0.40;99.90;;;;;;5016034;28;20037;-60
2022/03/06 07:01:16;;;;;;;13.82;7.82;;;1.20;99.90;;;;;;5015818;28;20552;-60
2022/03/06 07:03:41;;;;;;;12.15;7.00;;;0.20;99.90;;;;;;5016122;28;20061;-60
2022/03/06 07:06:07;;;;;;;13.82;7.15;;;0.60;99.90;;;;;;5015930;28;20092;-61
2022/03/06 07:08:32;;;;;;;13.90;7.10;;;0.80;99.90;;;;;;5015840;28;20042;-60
2022/03/06 07:10:58;;;;;;;11.50;7.03;;;0.40;99.90;;;;;;5016082;28;20038;-61
2022/03/06 07:13:24;;;;;;;10.43;6.55;;;1.50;99.90;;;;;;4998654;28;20095;-60
2022/03/06 07:15:50;;;;;;;9.63;6.57;;;;;;;;;;4990356;28;20509;-61
2022/03/06 07:18:16;;;;;;;9.63;6.07;;;0.90;99.90;;;;;;4978398;28;20047;-61
2022/03/06 07:20:42;;;;;;;11.45;5.75;;;;;;;;;;4996166;28;20043;-60
2022/03/06 07:23:09;;;;;;;8.48;5.57;;;0.70;99.90;;;;;;4996463;28;20066;-60
2022/03/06 07:25:34;;;;;;;8.43;5.68;;;1.80;99.90;;;;;;4995047;28;20050;-60
2022/03/06 07:28:00;;;;;;;10.15;5.72;;;1.00;99.90;;;;;;4995897;28;20053;-61
2022/03/06 07:30:26;;;;;;;9.40;5.45;;;;;;;;;;4995427;28;20386;-60
2022/03/06 07:32:52;;;;;;;8.23;5.60;;;0.90;99.90;;;;;;4978313;28;20057;-61
2022/03/06 07:35:20;;;;;;;9.30;5.95;;;1.10;99.90;;;;;;4995019;28;20152;-61
2022/03/06 07:37:46;;;;;;;12.60;5.55;;;1.10;99.90;;;;;;4995767;28;20062;-61
2022/03/06 07:40:14;;;;;;;10.90;5.85;;;1.00;99.90;;;;;;4995884;28;20042;-61
2022/03/06 07:42:40;;;;;;;7.63;5.38;;;0.90;99.90;;;;;;4995888;28;20385;-62
2022/03/06 07:45:07;;;;;;;8.07;5.22;;;1.80;99.90;;;;;;4978078;28;20039;-61
2022/03/06 07:47:32;;;;;;;10.23;5.35;;;1.10;99.90;;;;;;4995625;28;20050;-61
2022/03/06 07:49:59;;;;;;;10.85;5.93;;;1.80;99.90;;;;;;4995808;28;20121;-61
2022/03/06 07:52:24;;;;;;;9.68;5.30;;;1.10;99.90;;;;;;4995696;28;20038;-61
2022/03/06 07:54:51;;;;;;;8.75;5.20;;;;;;;;;;4995339;28;20053;-61
2022/03/06 07:57:17;;;;;;;9.73;5.22;;;1.40;99.90;;;;;;4995038;28;20055;-62
2022/03/06 07:59:42;;;;;;;12.05;5.63;;;1.90;99.90;;;;;;4995286;28;20035;-61
2022/03/06 08:02:08;;;;;;;8.77;5.82;;;2.00;99.90;;;;;;4995105;28;20050;-62
2022/03/06 08:04:33;;;;;;;9.55;5.60;;;1.90;99.90;;;;;;4995518;28;20046;-61
2022/03/06 08:07:01;;;;;;;12.35;6.40;;;1.50;99.90;;;;;;4995406;28;20042;-61
2022/03/06 08:09:26;;;;;;;13.50;6.07;;;1.50;99.90;;;;;;4995089;28;20038;-61
2022/03/06 08:11:53;;;;;;;13.60;6.40;;;1.20;99.90;;;;;;4995352;28;20042;-61
2022/03/06 08:14:22;;;;;;;12.23;6.38;;;1.30;99.90;;;;;;4994892;28;20042;-61
2022/03/06 08:16:47;;;;;;;10.80;6.15;;;1.90;99.90;;;;;;4994793;28;20121;-61
2022/03/06 08:19:13;;;;;;;9.00;5.97;;;2.60;99.90;;;;;;4995187;28;20077;-61
2022/03/06 08:21:39;;;;;;;10.23;6.07;;;1.70;99.90;;;;;;4977446;28;20065;-61
2022/03/06 08:24:05;;;;;;;11.10;6.10;;;1.90;99.90;;;;;;4986640;28;20521;-61
2022/03/06 08:26:31;;;;;;;9.95;5.40;;;1.90;99.90;;;;;;4987093;28;20035;-61
2022/03/06 08:28:57;;;;;;;9.43;5.57;;;1.80;99.90;;;;;;4988090;28;20054;-61
2022/03/06 08:31:23;;;;;;;9.48;5.45;;;1.80;99.90;;;;;;4984251;28;20113;-61
2022/03/06 08:33:48;;;;;;;8.60;5.20;;;1.50;99.90;;;;;;4985436;28;20056;-61
2022/03/06 08:36:15;;;;;;;8.32;5.13;;;2.10;99.90;;;;;;4986322;28;20042;-61
2022/03/06 08:38:41;;;;;;;8.77;4.80;;;1.20;99.90;;;;;;4981655;28;20065;-62
2022/03/06 08:41:07;;;;;;;11.25;5.30;;;;;;;;;;4992979;28;20030;-61
2022/03/06 08:43:33;;;;;;;8.55;5.07;;;;;;;;;;4992592;28;20065;-68
2022/03/06 08:45:58;;;;;;;9.05;4.95;;;2.10;99.90;;;;;;4993056;28;20462;-67
2022/03/06 08:48:24;;;;;;;7.65;4.60;;;2.80;99.90;;;;;;4975613;28;20120;-61
2022/03/06 08:50:50;;;;;;;11.40;4.60;;;4.00;99.90;;;;;;4992884;28;20124;-61
2022/03/06 08:53:17;;;;;;;7.43;4.80;;;4.00;99.90;;;;;;4993748;28;20057;-61
2022/03/06 08:55:43;;;;;;;10.00;4.55;;;4.90;99.90;;;;;;4992795;28;20418;-61
2022/03/06 08:58:09;;;;;;;7.53;4.43;;;5.20;99.90;;;;;;4992660;28;20042;-60
2022/03/06 09:00:34;;;;;;;7.93;4.20;;;5.00;99.90;;;;;;4998737;28;20080;-60
2022/03/06 09:03:00;;;;;;;7.25;4.35;;;5.70;99.90;;;;;;5012793;28;20046;-62
2022/03/06 09:05:26;;;;;;;9.45;4.55;;;5.50;99.90;;;;;;4995051;28;20049;-60
2022/03/06 09:07:52;;;;;;;9.38;4.35;;;5.30;99.90;;;;;;5010994;28;20038;-60
2022/03/06 09:10:18;;;;;;;8.13;4.20;;;;;;;;;;4993203;28;20419;-60
2022/03/06 09:12:44;;;;;;;7.75;4.50;;;;;;;;;;4992740;28;20038;-60
2022/03/06 09:15:10;;;;;;;8.98;4.63;;;4.70;99.90;;;;;;4992877;28;20125;-61
2022/03/06 09:17:37;;;;;;;10.95;4.75;;;4.40;99.90;;;;;;4993179;28;20169;-61
2022/03/06 09:20:05;;;;;;;7.30;4.65;;;4.20;99.90;;;;;;4974507;28;20054;-61
2022/03/06 09:22:30;;;;;;;12.13;4.68;;;5.00;99.90;;;;;;4975264;28;20039;-61
2022/03/06 09:24:56;;;;;;;9.02;4.93;;;4.30;99.90;;;;;;4975077;28;20042;-61
2022/03/06 09:27:22;;;;;;;14.85;4.80;;;4.70;99.90;;;;;;4993033;28;20386;-61
2022/03/06 09:29:48;;;;;;;7.50;4.80;;;;;;;;;;4992806;28;20038;-61
2022/03/06 09:32:13;;;;;;;9.27;5.00;;;4.20;99.90;;;;;;4993286;28;20070;-61
2022/03/06 09:34:39;;;;;;;8.32;4.95;;;4.60;99.90;;;;;;4993299;28;20078;-60
2022/03/06 09:37:05;;;;;;;8.88;4.93;;;4.20;99.90;;;;;;4992313;28;20050;-61
2022/03/06 09:39:31;;;;;;;9.02;5.00;;;4.00;99.90;;;;;;4992681;28;20039;-60
2022/03/06 09:41:57;;;;;;;7.10;4.80;;;4.30;99.90;;;;;;4992469;28;20050;-61
2022/03/06 09:44:27;;;;;;;8.82;5.20;;;4.40;99.90;;;;;;4991687;28;20089;-61
2022/03/06 09:46:56;;;;;;;8.80;4.72;;;4.60;99.90;;;;;;4991132;28;20050;-61
2022/03/06 09:49:22;;;;;;;6.80;4.90;;;4.90;99.90;;;;;;4993037;28;20112;-61
2022/03/06 09:51:49;;;;;;;6.50;4.80;;;4.70;99.90;;;;;;4992885;28;20054;-61
2022/03/06 09:54:18;;;;;;;8.07;5.03;;;4.60;99.90;;;;;;5011781;28;20046;-61
2022/03/06 09:56:45;;;;;;;9.68;5.03;;;5.00;99.90;;;;;;4996226;28;20063;-61
2022/03/06 09:59:11;;;;;;;9.00;5.40;;;4.50;99.90;;;;;;4997054;28;20034;-61
2022/03/06 10:01:37;;;;;;;8.70;5.30;;;5.30;99.90;;;;;;5010617;28;20504;-61
2022/03/06 10:04:26;;;;;;;7.72;5.40;;;4.80;99.90;;;;;;5015896;28;20405;-61
2022/03/06 10:07:05;;;;;;;8.05;5.55;;;4.70;99.90;;;;;;5015188;28;20521;-61
2022/03/06 10:09:33;;;;;;;8.48;5.25;;;4.90;99.90;;;;;;5014835;28;20081;-60
2022/03/06 10:11:59;;;;;;;8.85;5.32;;;4.60;99.90;;;;;;5015790;28;20064;-61
2022/03/06 10:14:38;;;;;;;8.82;5.10;;;4.90;99.90;;;;;;5016334;28;20117;-60
2022/03/06 10:17:18;;;;;;;10.00;5.07;;;4.60;97.00;;;;;;4997756;28;20054;-61
2022/03/06 10:20:04;;;;;;;8.90;5.57;;;4.90;96.90;;;;;;5016237;28;20374;-61
2022/03/06 10:22:41;;;;;;;15.18;5.50;;;4.20;99.90;;;;;;5015351;28;20050;-60
2022/03/06 10:25:08;;;;;;;8.07;5.05;;;4.70;99.90;;;;;;5014435;28;20042;-60
2022/03/06 10:27:54;;;;;;;8.02;5.20;;;4.70;99.90;;;;;;4998247;28;20052;-60
2022/03/06 10:30:41;;;;;;;8.10;5.10;;;4.80;99.90;;;;;;5015649;28;20045;-60
2022/03/06 10:33:18;;;;;;;7.13;5.03;;;4.80;99.90;;;;;;5015401;28;20061;-60
2022/03/06 10:35:46;;;;;;;7.57;4.97;;;5.00;99.90;;;;;;5015659;28;20362;-60
2022/03/06 10:38:31;;;;;;;8.82;5.00;;;4.90;99.90;;;;;;4980886;28;20062;-60
2022/03/06 10:40:59;;;;;;;8.30;5.13;;;4.80;99.90;;;;;;5015345;28;20045;-61
2022/03/06 10:43:29;;;;;;;8.88;4.97;;;4.90;94.00;;;;;;5015430;28;20390;-61
2022/03/06 10:46:14;;;;;;;7.75;5.05;;;5.00;99.90;;;;;;5015215;28;20045;-61
2022/03/06 10:48:42;;;;;;;6.65;4.50;;;4.90;94.50;;;;;;5015323;28;20390;-61
2022/03/06 10:51:10;;;;;;;7.35;5.00;;;5.10;99.90;;;;;;5015273;28;20042;-60
2022/03/06 10:53:36;;;;;;;8.65;4.85;;;5.10;99.90;;;;;;5015080;28;20120;-61
2022/03/06 10:56:05;;;;;;;7.03;5.07;;;5.10;99.90;;;;;;5014827;28;20577;-61
2022/03/06 10:58:32;;;;;;;7.07;4.60;;;5.10;93.30;;;;;;5014822;28;20521;-61
2022/03/06 11:00:58;;;;;;;6.40;4.90;;;5.30;92.40;;;;;;5014496;28;20065;-61
2022/03/06 11:03:25;;;;;;;10.00;5.43;;;5.20;99.90;;;;;;5008336;28;20093;-61
2022/03/06 11:05:52;;;;;;;8.30;4.93;;;5.00;99.90;;;;;;5003287;28;20046;-61
2022/03/06 11:08:18;;;;;;;8.05;4.97;;;5.20;99.90;;;;;;5004445;28;20038;-61
2022/03/06 11:10:44;;;;;;;8.00;4.18;;;5.00;99.90;;;;;;5012192;28;20122;-61
2022/03/06 11:13:14;;;;;;;5.72;3.90;;;4.70;99.60;;;;;;4996954;28;20117;-62
2022/03/06 11:15:41;;;;;;;6.32;3.85;;;5.70;90.50;;;;;;5014809;28;20044;-62
2022/03/06 11:18:08;;;;;;;6.75;3.80;;;;;;;;;;5014631;28;20054;-62
2022/03/06 11:20:35;;;;;;;6.82;3.67;;;5.30;99.10;;;;;;4997478;28;20041;-62
2022/03/06 11:23:12;;;;;;;5.72;3.90;;;4.50;98.50;;;;;;5014547;28;20041;-68
2022/03/06 11:25:49;;;;;;;10.27;3.60;;;5.40;99.00;;;;;;5014698;28;20045;-68
2022/03/06 11:28:15;;;;;;;7.95;3.83;;;5.30;94.60;;;;;;5014683;28;20041;-68
2022/03/06 11:30:41;;;;;;;6.18;3.55;;;4.70;94.50;;;;;;4996830;28;20068;-67
2022/03/06 11:33:09;;;;;;;6.10;3.60;;;5.40;86.20;;;;;;5014244;28;20077;-69
2022/03/06 11:35:42;;;;;;;6.63;3.78;;;6.00;97.90;;;;;;4996890;28;20061;-68
2022/03/06 11:38:11;;;;;;;5.22;3.30;;;5.60;97.70;;;;;;5014056;28;20060;-68
2022/03/06 11:40:48;;;;;;;5.53;3.50;;;5.30;96.80;;;;;;5014388;28;20042;-68
2022/03/06 11:43:35;;;;;;;7.90;3.50;;;5.70;83.80;;;;;;4996829;28;20501;-68
2022/03/06 11:46:26;;;;;;;7.28;3.80;;;5.70;81.40;;;;;;5003834;28;20180;-62
2022/03/06 11:48:51;;;;;;;6.80;3.50;;;5.40;96.20;;;;;;5005414;28;20042;-61
2022/03/06 11:51:19;;;;;;;7.38;3.60;;;5.90;96.10;;;;;;5004177;28;20108;-61
2022/03/06 11:53:48;;;;;;;6.15;3.30;;;5.30;77.80;;;;;;5006029;28;20080;-62
2022/03/06 11:56:35;;;;;;;7.90;3.58;;;5.90;95.20;;;;;;4984551;28;20050;-62
2022/03/06 11:59:01;;;;;;;7.05;3.35;;;;;;;;;;4994071;28;20042;-62
2022/03/06 12:01:33;;;;;;;9.27;3.50;;;6.10;93.90;;;;;;4993816;28;20050;-62
2022/03/06 12:04:14;;;;;;;12.55;3.63;;;6.30;93.70;;;;;;4993716;28;20038;-62
2022/03/06 12:06:41;;;;;;;7.35;3.42;;;5.80;92.90;;;;;;4993919;28;20047;-62
2022/03/06 12:09:22;;;;;;;5.70;3.28;;;5.80;90.10;;;;;;4982355;28;20078;-62
2022/03/06 12:11:49;;;;;;;6.85;3.50;;;6.10;93.50;;;;;;4974461;28;20050;-62
2022/03/06 12:14:20;;;;;;;5.95;3.63;;;5.50;93.50;;;;;;4974859;28;20049;-62
2022/03/06 12:17:11;;;;;;;5.13;3.40;;;6.00;93.90;;;;;;4973230;28;20122;-63
2022/03/06 12:19:43;;;;;;;5.05;3.33;;;6.00;93.30;;;;;;4972030;28;20380;-62
2022/03/06 12:22:13;;;;;;;7.00;3.25;;;6.10;74.30;;;;;;4974026;28;20043;-62
2022/03/06 12:24:40;;;;;;;5.60;3.60;;;5.90;93.00;;;;;;4974546;28;20167;-62
2022/03/06 12:27:19;;;;;;;8.70;3.58;;;5.80;93.40;;;;;;4974207;28;20134;-62
2022/03/06 12:29:47;;;;;;;5.45;3.80;;;6.30;93.30;;;;;;4974391;28;20049;-62
2022/03/06 12:32:25;;;;;;;6.93;3.70;;;6.30;93.30;;;;;;4974302;28;20050;-62
2022/03/06 12:34:58;;;;;;;20.58;4.32;;;6.00;93.10;;;;;;4992221;28;20050;-62
2022/03/06 12:37:25;;;;;;;8.98;3.78;;;6.00;93.10;;;;;;4992938;28;20058;-63
2022/03/06 12:39:52;;;;;;;9.23;3.78;;;5.90;93.20;;;;;;4992619;28;20077;-62
2022/03/06 12:42:25;;;;;;;7.15;4.05;;;6.00;93.40;;;;;;4993561;28;20078;-63
2022/03/06 12:44:56;;;;;;;8.60;3.90;;;6.10;93.60;;;;;;4993238;28;20046;-68
2022/03/06 12:47:22;;;;;;;11.20;3.78;;;;;;;;;;4975862;28;20490;-67
2022/03/06 12:49:49;;;;;;;8.63;4.28;;;6.50;75.20;;;;;;4993533;28;20082;-67
2022/03/06 12:52:24;;;;;;;7.22;4.22;;;6.50;93.30;;;;;;4993067;28;20464;-67
2022/03/06 12:54:50;;;;;;;5.93;3.75;;;6.40;75.70;;;;;;4993124;28;20043;-67
2022/03/06 12:57:17;;;;;;;9.30;4.10;;;6.20;93.60;;;;;;4993115;28;20058;-67
2022/03/06 12:59:46;;;;;;;9.35;3.63;;;6.40;75.10;;;;;;4993085;28;20121;-68
2022/03/06 13:02:15;;;;;;;9.20;3.90;;;6.70;93.20;;;;;;4992997;28;20058;-68